sensor_id;sensor_type;location;lat;lon;timestamp;P1;durP1;ratioP1;P2;durP2;ratioP2
50429;SDS011;36359;41.556;-8.418;2022-08-01T00:01:24;10.02;;;4.13;;
50429;SDS011;36359;41.556;-8.418;2022-08-01T00:03:50;13.57;;;4.25;;
50429;SDS011;36359;41.556;-8.418;2022-08-01T00:06:16;14.80;;;4.13;;
50429;SDS011;36359;41.556;-8.418;2022-08-01T00:08:42;9.13;;;4.15;;
50429;SDS011;36359;41.556;-8.418;2022-08-01T00:11:08;5.93;;;3.65;;
50429;SDS011;36359;41.556;-8.418;2022-08-01T00:13:34;7.70;;;3.80;;
50429;SDS011;36359;41.556;-8.418;2022-08-01T00:16:00;7.18;;;4.00;;
50429;SDS011;36359;41.556;-8.418;2022-08-01T00:18:26;8.48;;;4.55;;
50429;SDS011;36359;41.556;-8.418;2022-08-01T00:20:52;9.95;;;4.35;;
50429;SDS011;36359;41.556;-8.418;2022-08-01T00:23:18;7.28;;;3.97;;
50429;SDS011;36359;41.556;-8.418;2022-08-01T00:25:43;7.13;;;3.97;;
50429;SDS011;36359;41.556;-8.418;2022-08-01T00:28:09;7.30;;;3.33;;
50429;SDS011;36359;41.556;-8.418;2022-08-01T00:30:35;9.05;;;4.80;;
50429;SDS011;36359;41.556;-8.418;2022-08-01T00:33:02;11.45;;;4.53;;
50429;SDS011;36359;41.556;-8.418;2022-08-01T00:35:28;10.60;;;4.72;;
50429;SDS011;36359;41.556;-8.418;2022-08-01T00:40:26;11.40;;;4.80;;
50429;SDS011;36359;41.556;-8.418;2022-08-01T00:42:51;8.98;;;5.00;;
50429;SDS011;36359;41.556;-8.418;2022-08-01T00:45:17;10.57;;;5.10;;
50429;SDS011;36359;41.556;-8.418;2022-08-01T00:47:43;10.25;;;4.43;;
50429;SDS011;36359;41.556;-8.418;2022-08-01T00:50:09;8.90;;;4.03;;
50429;SDS011;36359;41.556;-8.418;2022-08-01T00:52:36;13.32;;;5.00;;
50429;SDS011;36359;41.556;-8.418;2022-08-01T00:55:02;10.70;;;4.80;;
50429;SDS011;36359;41.556;-8.418;2022-08-01T00:57:28;11.57;;;5.40;;
50429;SDS011;36359;41.556;-8.418;2022-08-01T00:59:55;10.63;;;4.40;;
50429;SDS011;36359;41.556;-8.418;2022-08-01T01:02:21;8.25;;;4.13;;
50429;SDS011;36359;41.556;-8.418;2022-08-01T01:04:47;7.50;;;4.47;;
50429;SDS011;36359;41.556;-8.418;2022-08-01T01:07:20;11.45;;;4.80;;
50429;SDS011;36359;41.556;-8.418;2022-08-01T01:09:56;8.55;;;4.43;;
50429;SDS011;36359;41.556;-8.418;2022-08-01T01:12:29;6.88;;;3.97;;
50429;SDS011;36359;41.556;-8.418;2022-08-01T01:15:07;9.50;;;4.40;;
50429;SDS011;36359;41.556;-8.418;2022-08-01T01:20:43;8.75;;;4.30;;
50429;SDS011;36359;41.556;-8.418;2022-08-01T01:26:10;6.90;;;3.65;;
50429;SDS011;36359;41.556;-8.418;2022-08-01T01:28:57;6.70;;;3.70;;
50429;SDS011;36359;41.556;-8.418;2022-08-01T01:31:29;5.53;;;3.65;;
50429;SDS011;36359;41.556;-8.418;2022-08-01T01:33:58;9.57;;;5.33;;
50429;SDS011;36359;41.556;-8.418;2022-08-01T01:36:27;10.20;;;5.43;;
50429;SDS011;36359;41.556;-8.418;2022-08-01T01:38:56;12.82;;;5.22;;
50429;SDS011;36359;41.556;-8.418;2022-08-01T01:41:22;5.95;;;3.83;;
50429;SDS011;36359;41.556;-8.418;2022-08-01T01:43:49;12.63;;;5.60;;
50429;SDS011;36359;41.556;-8.418;2022-08-01T01:46:17;12.10;;;5.75;;
50429;SDS011;36359;41.556;-8.418;2022-08-01T01:48:47;8.65;;;5.00;;
50429;SDS011;36359;41.556;-8.418;2022-08-01T01:51:15;7.22;;;4.30;;
50429;SDS011;36359;41.556;-8.418;2022-08-01T01:53:42;9.07;;;3.63;;
50429;SDS011;36359;41.556;-8.418;2022-08-01T01:56:09;6.60;;;4.03;;
50429;SDS011;36359;41.556;-8.418;2022-08-01T01:58:39;8.38;;;4.00;;
50429;SDS011;36359;41.556;-8.418;2022-08-01T02:01:05;7.18;;;4.80;;
50429;SDS011;36359;41.556;-8.418;2022-08-01T02:03:32;8.10;;;4.25;;
50429;SDS011;36359;41.556;-8.418;2022-08-01T02:06:01;6.30;;;3.50;;
50429;SDS011;36359;41.556;-8.418;2022-08-01T02:11:01;6.82;;;4.35;;
50429;SDS011;36359;41.556;-8.418;2022-08-01T02:13:43;9.88;;;4.25;;
50429;SDS011;36359;41.556;-8.418;2022-08-01T02:16:13;5.88;;;3.83;;
50429;SDS011;36359;41.556;-8.418;2022-08-01T02:18:40;4.88;;;3.90;;
50429;SDS011;36359;41.556;-8.418;2022-08-01T02:21:08;7.68;;;3.88;;
50429;SDS011;36359;41.556;-8.418;2022-08-01T02:26:06;7.20;;;3.80;;
50429;SDS011;36359;41.556;-8.418;2022-08-01T02:28:36;8.48;;;5.40;;
50429;SDS011;36359;41.556;-8.418;2022-08-01T02:31:10;7.03;;;3.85;;
50429;SDS011;36359;41.556;-8.418;2022-08-01T02:33:46;8.68;;;4.18;;
50429;SDS011;36359;41.556;-8.418;2022-08-01T02:36:18;6.22;;;4.10;;
50429;SDS011;36359;41.556;-8.418;2022-08-01T02:38:45;6.18;;;3.90;;
50429;SDS011;36359;41.556;-8.418;2022-08-01T02:41:17;7.53;;;4.10;;
50429;SDS011;36359;41.556;-8.418;2022-08-01T02:43:47;4.55;;;3.50;;
50429;SDS011;36359;41.556;-8.418;2022-08-01T02:46:27;9.45;;;4.75;;
50429;SDS011;36359;41.556;-8.418;2022-08-01T02:49:00;9.77;;;5.15;;
50429;SDS011;36359;41.556;-8.418;2022-08-01T02:53:56;7.40;;;3.75;;
50429;SDS011;36359;41.556;-8.418;2022-08-01T02:56:24;8.10;;;4.07;;
50429;SDS011;36359;41.556;-8.418;2022-08-01T02:59:10;7.82;;;4.88;;
50429;SDS011;36359;41.556;-8.418;2022-08-01T03:01:39;8.05;;;4.97;;
50429;SDS011;36359;41.556;-8.418;2022-08-01T03:04:08;12.02;;;5.25;;
50429;SDS011;36359;41.556;-8.418;2022-08-01T03:06:34;9.30;;;4.57;;
50429;SDS011;36359;41.556;-8.418;2022-08-01T03:09:02;9.55;;;4.55;;
50429;SDS011;36359;41.556;-8.418;2022-08-01T03:11:30;6.30;;;4.07;;
50429;SDS011;36359;41.556;-8.418;2022-08-01T03:13:58;6.97;;;4.50;;
50429;SDS011;36359;41.556;-8.418;2022-08-01T03:16:27;6.88;;;4.72;;
50429;SDS011;36359;41.556;-8.418;2022-08-01T03:18:53;5.82;;;3.90;;
50429;SDS011;36359;41.556;-8.418;2022-08-01T03:21:22;6.93;;;4.20;;
50429;SDS011;36359;41.556;-8.418;2022-08-01T03:23:49;5.35;;;3.83;;
50429;SDS011;36359;41.556;-8.418;2022-08-01T03:26:18;6.93;;;3.97;;
50429;SDS011;36359;41.556;-8.418;2022-08-01T03:28:44;10.82;;;4.57;;
50429;SDS011;36359;41.556;-8.418;2022-08-01T03:31:13;9.80;;;4.55;;
50429;SDS011;36359;41.556;-8.418;2022-08-01T03:33:39;8.95;;;5.63;;
50429;SDS011;36359;41.556;-8.418;2022-08-01T03:36:05;11.15;;;5.60;;
50429;SDS011;36359;41.556;-8.418;2022-08-01T03:38:35;9.70;;;5.82;;
50429;SDS011;36359;41.556;-8.418;2022-08-01T03:41:18;10.45;;;4.90;;
50429;SDS011;36359;41.556;-8.418;2022-08-01T03:43:47;9.65;;;5.72;;
50429;SDS011;36359;41.556;-8.418;2022-08-01T03:46:19;8.93;;;5.22;;
50429;SDS011;36359;41.556;-8.418;2022-08-01T03:51:14;7.18;;;4.50;;
50429;SDS011;36359;41.556;-8.418;2022-08-01T03:53:42;5.78;;;4.40;;
50429;SDS011;36359;41.556;-8.418;2022-08-01T03:56:10;7.80;;;5.35;;
50429;SDS011;36359;41.556;-8.418;2022-08-01T03:58:42;10.40;;;5.90;;
50429;SDS011;36359;41.556;-8.418;2022-08-01T04:01:09;8.95;;;5.72;;
50429;SDS011;36359;41.556;-8.418;2022-08-01T04:03:36;7.75;;;4.55;;
50429;SDS011;36359;41.556;-8.418;2022-08-01T04:06:06;7.47;;;4.32;;
50429;SDS011;36359;41.556;-8.418;2022-08-01T04:08:34;8.45;;;5.38;;
50429;SDS011;36359;41.556;-8.418;2022-08-01T04:11:01;9.27;;;5.28;;
50429;SDS011;36359;41.556;-8.418;2022-08-01T04:13:27;8.45;;;5.43;;
50429;SDS011;36359;41.556;-8.418;2022-08-01T04:15:52;7.95;;;5.50;;
50429;SDS011;36359;41.556;-8.418;2022-08-01T04:18:18;6.15;;;4.25;;
50429;SDS011;36359;41.556;-8.418;2022-08-01T04:20:46;6.60;;;4.22;;
50429;SDS011;36359;41.556;-8.418;2022-08-01T04:23:12;7.53;;;4.75;;
50429;SDS011;36359;41.556;-8.418;2022-08-01T04:25:41;9.57;;;5.55;;
50429;SDS011;36359;41.556;-8.418;2022-08-01T04:28:10;8.38;;;5.35;;
50429;SDS011;36359;41.556;-8.418;2022-08-01T04:30:41;7.68;;;4.93;;
50429;SDS011;36359;41.556;-8.418;2022-08-01T04:33:10;6.57;;;4.00;;
50429;SDS011;36359;41.556;-8.418;2022-08-01T04:35:42;5.57;;;4.05;;
50429;SDS011;36359;41.556;-8.418;2022-08-01T04:38:12;6.80;;;4.68;;
50429;SDS011;36359;41.556;-8.418;2022-08-01T04:40:42;10.93;;;6.22;;
50429;SDS011;36359;41.556;-8.418;2022-08-01T04:43:13;11.63;;;5.65;;
50429;SDS011;36359;41.556;-8.418;2022-08-01T04:45:39;10.35;;;6.28;;
50429;SDS011;36359;41.556;-8.418;2022-08-01T04:48:08;5.40;;;4.47;;
50429;SDS011;36359;41.556;-8.418;2022-08-01T04:50:36;7.15;;;4.70;;
50429;SDS011;36359;41.556;-8.418;2022-08-01T04:53:02;6.72;;;4.40;;
50429;SDS011;36359;41.556;-8.418;2022-08-01T04:55:29;8.98;;;5.90;;
50429;SDS011;36359;41.556;-8.418;2022-08-01T04:57:56;10.48;;;6.05;;
50429;SDS011;36359;41.556;-8.418;2022-08-01T05:00:22;7.90;;;4.85;;
50429;SDS011;36359;41.556;-8.418;2022-08-01T05:02:48;7.63;;;4.63;;
50429;SDS011;36359;41.556;-8.418;2022-08-01T05:05:13;5.93;;;4.20;;
50429;SDS011;36359;41.556;-8.418;2022-08-01T05:07:40;14.18;;;5.82;;
50429;SDS011;36359;41.556;-8.418;2022-08-01T05:10:05;8.60;;;5.97;;
50429;SDS011;36359;41.556;-8.418;2022-08-01T05:12:31;9.10;;;5.50;;
50429;SDS011;36359;41.556;-8.418;2022-08-01T05:14:58;7.10;;;4.72;;
50429;SDS011;36359;41.556;-8.418;2022-08-01T05:17:24;6.57;;;4.40;;
50429;SDS011;36359;41.556;-8.418;2022-08-01T05:19:50;8.63;;;5.80;;
50429;SDS011;36359;41.556;-8.418;2022-08-01T05:22:16;14.23;;;5.45;;
50429;SDS011;36359;41.556;-8.418;2022-08-01T05:24:42;9.40;;;4.50;;
50429;SDS011;36359;41.556;-8.418;2022-08-01T05:27:08;6.78;;;4.78;;
50429;SDS011;36359;41.556;-8.418;2022-08-01T05:29:34;7.03;;;4.97;;
50429;SDS011;36359;41.556;-8.418;2022-08-01T05:32:00;8.00;;;4.35;;
50429;SDS011;36359;41.556;-8.418;2022-08-01T05:34:27;8.68;;;4.22;;
50429;SDS011;36359;41.556;-8.418;2022-08-01T05:36:53;7.03;;;4.75;;
50429;SDS011;36359;41.556;-8.418;2022-08-01T05:39:19;5.97;;;4.78;;
50429;SDS011;36359;41.556;-8.418;2022-08-01T05:41:45;6.28;;;4.75;;
50429;SDS011;36359;41.556;-8.418;2022-08-01T05:44:11;7.70;;;4.50;;
50429;SDS011;36359;41.556;-8.418;2022-08-01T05:46:36;8.35;;;5.72;;
50429;SDS011;36359;41.556;-8.418;2022-08-01T05:49:03;8.20;;;5.95;;
50429;SDS011;36359;41.556;-8.418;2022-08-01T05:51:30;11.95;;;6.18;;
50429;SDS011;36359;41.556;-8.418;2022-08-01T05:53:56;8.25;;;5.13;;
50429;SDS011;36359;41.556;-8.418;2022-08-01T05:56:23;4.45;;;4.03;;
50429;SDS011;36359;41.556;-8.418;2022-08-01T05:58:49;6.03;;;4.90;;
50429;SDS011;36359;41.556;-8.418;2022-08-01T06:01:16;10.63;;;5.35;;
50429;SDS011;36359;41.556;-8.418;2022-08-01T06:03:42;6.60;;;4.60;;
50429;SDS011;36359;41.556;-8.418;2022-08-01T06:06:08;6.78;;;5.00;;
50429;SDS011;36359;41.556;-8.418;2022-08-01T06:08:34;12.77;;;6.57;;
50429;SDS011;36359;41.556;-8.418;2022-08-01T06:11:00;18.90;;;9.77;;
50429;SDS011;36359;41.556;-8.418;2022-08-01T06:13:26;14.30;;;8.77;;
50429;SDS011;36359;41.556;-8.418;2022-08-01T06:15:52;10.98;;;7.80;;
50429;SDS011;36359;41.556;-8.418;2022-08-01T06:18:19;10.90;;;7.35;;
50429;SDS011;36359;41.556;-8.418;2022-08-01T06:20:45;11.85;;;7.28;;
50429;SDS011;36359;41.556;-8.418;2022-08-01T06:23:11;8.35;;;5.50;;
50429;SDS011;36359;41.556;-8.418;2022-08-01T06:25:38;14.70;;;9.13;;
50429;SDS011;36359;41.556;-8.418;2022-08-01T06:28:04;17.30;;;7.50;;
50429;SDS011;36359;41.556;-8.418;2022-08-01T06:30:30;10.30;;;6.38;;
50429;SDS011;36359;41.556;-8.418;2022-08-01T06:32:56;9.73;;;5.18;;
50429;SDS011;36359;41.556;-8.418;2022-08-01T06:35:24;6.97;;;5.50;;
50429;SDS011;36359;41.556;-8.418;2022-08-01T06:37:49;8.63;;;5.57;;
50429;SDS011;36359;41.556;-8.418;2022-08-01T06:40:15;12.15;;;6.82;;
50429;SDS011;36359;41.556;-8.418;2022-08-01T06:42:41;9.63;;;6.13;;
50429;SDS011;36359;41.556;-8.418;2022-08-01T06:45:08;10.98;;;6.10;;
50429;SDS011;36359;41.556;-8.418;2022-08-01T06:47:35;7.90;;;5.15;;
50429;SDS011;36359;41.556;-8.418;2022-08-01T06:50:05;10.38;;;5.70;;
50429;SDS011;36359;41.556;-8.418;2022-08-01T06:54:58;11.10;;;6.30;;
50429;SDS011;36359;41.556;-8.418;2022-08-01T06:57:25;9.55;;;6.47;;
50429;SDS011;36359;41.556;-8.418;2022-08-01T06:59:51;9.23;;;6.38;;
50429;SDS011;36359;41.556;-8.418;2022-08-01T07:02:17;10.75;;;6.78;;
50429;SDS011;36359;41.556;-8.418;2022-08-01T07:04:46;10.70;;;6.45;;
50429;SDS011;36359;41.556;-8.418;2022-08-01T07:07:12;9.55;;;6.60;;
50429;SDS011;36359;41.556;-8.418;2022-08-01T07:09:40;10.90;;;7.22;;
50429;SDS011;36359;41.556;-8.418;2022-08-01T07:12:11;15.75;;;7.88;;
50429;SDS011;36359;41.556;-8.418;2022-08-01T07:14:37;12.57;;;7.43;;
50429;SDS011;36359;41.556;-8.418;2022-08-01T07:17:03;8.10;;;5.43;;
50429;SDS011;36359;41.556;-8.418;2022-08-01T07:19:29;7.78;;;5.05;;
50429;SDS011;36359;41.556;-8.418;2022-08-01T07:21:54;11.40;;;5.63;;
50429;SDS011;36359;41.556;-8.418;2022-08-01T07:24:20;11.70;;;6.47;;
50429;SDS011;36359;41.556;-8.418;2022-08-01T07:26:47;13.43;;;7.32;;
50429;SDS011;36359;41.556;-8.418;2022-08-01T07:29:14;18.23;;;8.10;;
50429;SDS011;36359;41.556;-8.418;2022-08-01T07:31:40;12.63;;;7.30;;
50429;SDS011;36359;41.556;-8.418;2022-08-01T07:34:06;16.60;;;7.82;;
50429;SDS011;36359;41.556;-8.418;2022-08-01T07:36:32;13.32;;;7.45;;
50429;SDS011;36359;41.556;-8.418;2022-08-01T07:38:58;10.65;;;6.90;;
50429;SDS011;36359;41.556;-8.418;2022-08-01T07:41:24;12.70;;;7.32;;
50429;SDS011;36359;41.556;-8.418;2022-08-01T07:43:50;17.45;;;8.30;;
50429;SDS011;36359;41.556;-8.418;2022-08-01T07:46:15;14.13;;;7.50;;
50429;SDS011;36359;41.556;-8.418;2022-08-01T07:48:41;16.58;;;8.27;;
50429;SDS011;36359;41.556;-8.418;2022-08-01T07:51:07;17.70;;;8.57;;
50429;SDS011;36359;41.556;-8.418;2022-08-01T07:53:36;9.77;;;6.03;;
50429;SDS011;36359;41.556;-8.418;2022-08-01T07:56:03;16.15;;;8.10;;
50429;SDS011;36359;41.556;-8.418;2022-08-01T07:58:31;15.05;;;7.53;;
50429;SDS011;36359;41.556;-8.418;2022-08-01T08:00:57;10.57;;;7.53;;
50429;SDS011;36359;41.556;-8.418;2022-08-01T08:03:23;12.18;;;7.60;;
50429;SDS011;36359;41.556;-8.418;2022-08-01T08:05:52;7.05;;;5.28;;
50429;SDS011;36359;41.556;-8.418;2022-08-01T08:08:17;12.43;;;6.15;;
50429;SDS011;36359;41.556;-8.418;2022-08-01T08:10:43;11.55;;;7.75;;
50429;SDS011;36359;41.556;-8.418;2022-08-01T08:13:10;7.07;;;5.22;;
50429;SDS011;36359;41.556;-8.418;2022-08-01T08:15:35;8.88;;;5.05;;
50429;SDS011;36359;41.556;-8.418;2022-08-01T08:18:04;12.70;;;7.75;;
50429;SDS011;36359;41.556;-8.418;2022-08-01T08:20:30;9.20;;;5.80;;
50429;SDS011;36359;41.556;-8.418;2022-08-01T08:22:56;12.93;;;6.85;;
50429;SDS011;36359;41.556;-8.418;2022-08-01T08:25:25;9.93;;;6.63;;
50429;SDS011;36359;41.556;-8.418;2022-08-01T08:27:52;9.02;;;6.75;;
50429;SDS011;36359;41.556;-8.418;2022-08-01T08:30:18;9.02;;;5.95;;
50429;SDS011;36359;41.556;-8.418;2022-08-01T08:32:44;11.48;;;6.65;;
50429;SDS011;36359;41.556;-8.418;2022-08-01T08:35:10;10.05;;;5.40;;
50429;SDS011;36359;41.556;-8.418;2022-08-01T08:37:36;13.75;;;7.45;;
50429;SDS011;36359;41.556;-8.418;2022-08-01T08:40:03;21.02;;;8.63;;
50429;SDS011;36359;41.556;-8.418;2022-08-01T08:42:30;10.38;;;7.32;;
50429;SDS011;36359;41.556;-8.418;2022-08-01T08:44:56;10.40;;;6.10;;
50429;SDS011;36359;41.556;-8.418;2022-08-01T08:47:22;13.82;;;7.40;;
50429;SDS011;36359;41.556;-8.418;2022-08-01T08:49:52;9.48;;;6.40;;
50429;SDS011;36359;41.556;-8.418;2022-08-01T08:52:20;10.40;;;5.68;;
50429;SDS011;36359;41.556;-8.418;2022-08-01T08:54:46;7.18;;;5.50;;
50429;SDS011;36359;41.556;-8.418;2022-08-01T08:57:14;9.65;;;5.93;;
50429;SDS011;36359;41.556;-8.418;2022-08-01T08:59:40;8.45;;;5.13;;
50429;SDS011;36359;41.556;-8.418;2022-08-01T09:02:08;9.10;;;5.68;;
50429;SDS011;36359;41.556;-8.418;2022-08-01T09:04:35;8.90;;;5.53;;
50429;SDS011;36359;41.556;-8.418;2022-08-01T09:07:03;10.35;;;6.00;;
50429;SDS011;36359;41.556;-8.418;2022-08-01T09:09:32;12.00;;;6.72;;
50429;SDS011;36359;41.556;-8.418;2022-08-01T09:11:58;13.05;;;7.38;;
50429;SDS011;36359;41.556;-8.418;2022-08-01T09:14:25;16.50;;;6.88;;
50429;SDS011;36359;41.556;-8.418;2022-08-01T09:17:02;10.57;;;5.55;;
50429;SDS011;36359;41.556;-8.418;2022-08-01T09:22:05;10.57;;;6.10;;
50429;SDS011;36359;41.556;-8.418;2022-08-01T09:24:33;11.35;;;6.28;;
50429;SDS011;36359;41.556;-8.418;2022-08-01T09:26:59;9.00;;;6.05;;
50429;SDS011;36359;41.556;-8.418;2022-08-01T09:29:28;9.52;;;6.07;;
50429;SDS011;36359;41.556;-8.418;2022-08-01T09:31:56;11.00;;;7.15;;
50429;SDS011;36359;41.556;-8.418;2022-08-01T09:34:28;10.93;;;6.50;;
50429;SDS011;36359;41.556;-8.418;2022-08-01T09:36:59;8.77;;;5.45;;
50429;SDS011;36359;41.556;-8.418;2022-08-01T09:39:30;9.15;;;6.88;;
50429;SDS011;36359;41.556;-8.418;2022-08-01T09:42:00;11.40;;;6.40;;
50429;SDS011;36359;41.556;-8.418;2022-08-01T09:44:43;10.82;;;6.50;;
50429;SDS011;36359;41.556;-8.418;2022-08-01T09:47:10;9.18;;;5.65;;
50429;SDS011;36359;41.556;-8.418;2022-08-01T09:49:37;11.65;;;6.05;;
50429;SDS011;36359;41.556;-8.418;2022-08-01T09:52:14;9.35;;;5.60;;
50429;SDS011;36359;41.556;-8.418;2022-08-01T09:54:54;12.50;;;5.93;;
50429;SDS011;36359;41.556;-8.418;2022-08-01T09:57:22;9.68;;;6.20;;
50429;SDS011;36359;41.556;-8.418;2022-08-01T09:59:50;8.45;;;6.00;;
50429;SDS011;36359;41.556;-8.418;2022-08-01T10:07:23;9.55;;;5.95;;
50429;SDS011;36359;41.556;-8.418;2022-08-01T10:09:49;6.82;;;5.07;;
50429;SDS011;36359;41.556;-8.418;2022-08-01T10:12:17;8.05;;;5.20;;
50429;SDS011;36359;41.556;-8.418;2022-08-01T10:14:46;6.10;;;5.40;;
50429;SDS011;36359;41.556;-8.418;2022-08-01T10:17:15;7.93;;;5.45;;
50429;SDS011;36359;41.556;-8.418;2022-08-01T10:19:42;6.95;;;5.22;;
50429;SDS011;36359;41.556;-8.418;2022-08-01T10:22:09;9.35;;;5.25;;
50429;SDS011;36359;41.556;-8.418;2022-08-01T10:24:39;8.32;;;4.95;;
50429;SDS011;36359;41.556;-8.418;2022-08-01T10:27:07;9.00;;;5.50;;
50429;SDS011;36359;41.556;-8.418;2022-08-01T10:29:36;9.07;;;4.93;;
50429;SDS011;36359;41.556;-8.418;2022-08-01T10:32:11;7.05;;;5.43;;
50429;SDS011;36359;41.556;-8.418;2022-08-01T10:34:37;8.65;;;5.63;;
50429;SDS011;36359;41.556;-8.418;2022-08-01T10:37:05;8.57;;;5.30;;
50429;SDS011;36359;41.556;-8.418;2022-08-01T10:39:32;8.85;;;5.40;;
50429;SDS011;36359;41.556;-8.418;2022-08-01T10:41:59;8.05;;;5.18;;
50429;SDS011;36359;41.556;-8.418;2022-08-01T10:44:27;7.22;;;5.55;;
50429;SDS011;36359;41.556;-8.418;2022-08-01T10:47:04;9.85;;;5.38;;
50429;SDS011;36359;41.556;-8.418;2022-08-01T10:49:39;6.32;;;4.93;;
50429;SDS011;36359;41.556;-8.418;2022-08-01T10:52:16;8.32;;;5.10;;
50429;SDS011;36359;41.556;-8.418;2022-08-01T10:54:45;6.05;;;5.30;;
50429;SDS011;36359;41.556;-8.418;2022-08-01T10:57:12;8.48;;;5.50;;
50429;SDS011;36359;41.556;-8.418;2022-08-01T10:59:48;8.82;;;5.50;;
50429;SDS011;36359;41.556;-8.418;2022-08-01T11:02:28;6.57;;;4.88;;
50429;SDS011;36359;41.556;-8.418;2022-08-01T11:04:57;9.05;;;5.30;;
50429;SDS011;36359;41.556;-8.418;2022-08-01T11:07:46;6.05;;;5.35;;
50429;SDS011;36359;41.556;-8.418;2022-08-01T11:12:57;9.00;;;4.90;;
50429;SDS011;36359;41.556;-8.418;2022-08-01T11:15:26;6.70;;;4.20;;
50429;SDS011;36359;41.556;-8.418;2022-08-01T11:17:53;6.53;;;4.78;;
50429;SDS011;36359;41.556;-8.418;2022-08-01T11:20:23;8.02;;;4.53;;
50429;SDS011;36359;41.556;-8.418;2022-08-01T11:25:27;9.15;;;5.00;;
50429;SDS011;36359;41.556;-8.418;2022-08-01T11:30:39;7.45;;;3.97;;
50429;SDS011;36359;41.556;-8.418;2022-08-01T11:33:05;9.88;;;4.22;;
50429;SDS011;36359;41.556;-8.418;2022-08-01T11:35:32;8.95;;;4.30;;
50429;SDS011;36359;41.556;-8.418;2022-08-01T11:38:22;6.78;;;4.38;;
50429;SDS011;36359;41.556;-8.418;2022-08-01T11:52:02;6.35;;;3.78;;
50429;SDS011;36359;41.556;-8.418;2022-08-01T11:54:29;5.50;;;3.80;;
50429;SDS011;36359;41.556;-8.418;2022-08-01T11:56:57;7.38;;;3.47;;
50429;SDS011;36359;41.556;-8.418;2022-08-01T11:59:25;4.43;;;2.80;;
50429;SDS011;36359;41.556;-8.418;2022-08-01T12:01:51;5.47;;;3.45;;
50429;SDS011;36359;41.556;-8.418;2022-08-01T12:04:17;5.15;;;3.10;;
50429;SDS011;36359;41.556;-8.418;2022-08-01T12:06:44;4.95;;;3.72;;
50429;SDS011;36359;41.556;-8.418;2022-08-01T12:09:21;5.68;;;3.42;;
50429;SDS011;36359;41.556;-8.418;2022-08-01T12:11:48;6.75;;;3.75;;
50429;SDS011;36359;41.556;-8.418;2022-08-01T12:14:18;4.50;;;3.50;;
50429;SDS011;36359;41.556;-8.418;2022-08-01T12:16:49;7.60;;;3.45;;
50429;SDS011;36359;41.556;-8.418;2022-08-01T12:19:22;5.90;;;3.50;;
50429;SDS011;36359;41.556;-8.418;2022-08-01T12:24:35;5.07;;;3.72;;
50429;SDS011;36359;41.556;-8.418;2022-08-01T12:27:04;6.40;;;3.47;;
50429;SDS011;36359;41.556;-8.418;2022-08-01T12:29:38;5.90;;;3.47;;
50429;SDS011;36359;41.556;-8.418;2022-08-01T12:35:01;8.23;;;4.03;;
50429;SDS011;36359;41.556;-8.418;2022-08-01T12:37:35;6.95;;;3.63;;
50429;SDS011;36359;41.556;-8.418;2022-08-01T12:40:15;5.90;;;3.67;;
50429;SDS011;36359;41.556;-8.418;2022-08-01T12:42:44;6.57;;;3.60;;
50429;SDS011;36359;41.556;-8.418;2022-08-01T12:45:17;7.75;;;4.25;;
50429;SDS011;36359;41.556;-8.418;2022-08-01T12:47:47;10.00;;;4.07;;
50429;SDS011;36359;41.556;-8.418;2022-08-01T12:50:18;7.22;;;3.58;;
50429;SDS011;36359;41.556;-8.418;2022-08-01T12:52:46;6.45;;;4.00;;
50429;SDS011;36359;41.556;-8.418;2022-08-01T12:55:16;6.93;;;4.88;;
50429;SDS011;36359;41.556;-8.418;2022-08-01T12:57:44;9.25;;;4.95;;
50429;SDS011;36359;41.556;-8.418;2022-08-01T13:00:19;10.05;;;5.10;;
50429;SDS011;36359;41.556;-8.418;2022-08-01T13:05:15;10.70;;;5.53;;
50429;SDS011;36359;41.556;-8.418;2022-08-01T13:07:43;8.13;;;5.20;;
50429;SDS011;36359;41.556;-8.418;2022-08-01T13:10:13;10.45;;;5.65;;
50429;SDS011;36359;41.556;-8.418;2022-08-01T13:12:40;10.55;;;5.50;;
50429;SDS011;36359;41.556;-8.418;2022-08-01T13:15:17;12.48;;;4.75;;
50429;SDS011;36359;41.556;-8.418;2022-08-01T13:17:57;9.82;;;5.72;;
50429;SDS011;36359;41.556;-8.418;2022-08-01T13:20:28;5.93;;;5.00;;
50429;SDS011;36359;41.556;-8.418;2022-08-01T13:23:09;11.05;;;5.47;;
50429;SDS011;36359;41.556;-8.418;2022-08-01T13:25:46;11.52;;;5.85;;
50429;SDS011;36359;41.556;-8.418;2022-08-01T13:28:17;7.68;;;5.38;;
50429;SDS011;36359;41.556;-8.418;2022-08-01T13:33:43;9.10;;;4.80;;
50429;SDS011;36359;41.556;-8.418;2022-08-01T13:36:10;12.73;;;5.57;;
50429;SDS011;36359;41.556;-8.418;2022-08-01T13:38:37;9.10;;;5.40;;
50429;SDS011;36359;41.556;-8.418;2022-08-01T13:41:22;15.75;;;5.63;;
50429;SDS011;36359;41.556;-8.418;2022-08-01T13:43:48;11.30;;;5.60;;
50429;SDS011;36359;41.556;-8.418;2022-08-01T13:46:14;10.13;;;5.53;;
50429;SDS011;36359;41.556;-8.418;2022-08-01T13:48:39;10.95;;;5.60;;
50429;SDS011;36359;41.556;-8.418;2022-08-01T13:51:05;9.50;;;5.60;;
50429;SDS011;36359;41.556;-8.418;2022-08-01T13:53:31;10.88;;;5.20;;
50429;SDS011;36359;41.556;-8.418;2022-08-01T13:55:57;9.25;;;5.70;;
50429;SDS011;36359;41.556;-8.418;2022-08-01T13:58:22;11.70;;;5.65;;
50429;SDS011;36359;41.556;-8.418;2022-08-01T14:00:48;8.40;;;5.07;;
50429;SDS011;36359;41.556;-8.418;2022-08-01T14:03:14;15.45;;;6.13;;
50429;SDS011;36359;41.556;-8.418;2022-08-01T14:05:42;7.78;;;5.20;;
50429;SDS011;36359;41.556;-8.418;2022-08-01T14:08:09;9.35;;;5.55;;
50429;SDS011;36359;41.556;-8.418;2022-08-01T14:10:35;10.70;;;5.80;;
50429;SDS011;36359;41.556;-8.418;2022-08-01T14:13:00;13.38;;;6.45;;
50429;SDS011;36359;41.556;-8.418;2022-08-01T14:15:26;12.65;;;5.72;;
50429;SDS011;36359;41.556;-8.418;2022-08-01T14:17:52;8.93;;;5.30;;
50429;SDS011;36359;41.556;-8.418;2022-08-01T14:20:18;12.10;;;4.95;;
50429;SDS011;36359;41.556;-8.418;2022-08-01T14:22:45;9.18;;;5.68;;
50429;SDS011;36359;41.556;-8.418;2022-08-01T14:25:11;8.18;;;4.97;;
50429;SDS011;36359;41.556;-8.418;2022-08-01T14:27:37;8.77;;;5.05;;
50429;SDS011;36359;41.556;-8.418;2022-08-01T14:30:05;5.82;;;5.03;;
50429;SDS011;36359;41.556;-8.418;2022-08-01T14:32:34;11.13;;;5.40;;
50429;SDS011;36359;41.556;-8.418;2022-08-01T14:35:01;9.98;;;5.75;;
50429;SDS011;36359;41.556;-8.418;2022-08-01T14:37:31;11.40;;;5.05;;
50429;SDS011;36359;41.556;-8.418;2022-08-01T14:39:58;7.95;;;4.95;;
50429;SDS011;36359;41.556;-8.418;2022-08-01T14:42:32;9.07;;;5.30;;
50429;SDS011;36359;41.556;-8.418;2022-08-01T14:44:58;10.15;;;5.20;;
50429;SDS011;36359;41.556;-8.418;2022-08-01T14:47:24;10.05;;;5.20;;
50429;SDS011;36359;41.556;-8.418;2022-08-01T14:49:50;8.55;;;4.80;;
50429;SDS011;36359;41.556;-8.418;2022-08-01T14:52:16;8.90;;;5.30;;
50429;SDS011;36359;41.556;-8.418;2022-08-01T14:54:42;8.38;;;4.88;;
50429;SDS011;36359;41.556;-8.418;2022-08-01T14:57:08;7.15;;;4.68;;
50429;SDS011;36359;41.556;-8.418;2022-08-01T14:59:34;8.60;;;4.85;;
50429;SDS011;36359;41.556;-8.418;2022-08-01T15:02:00;7.07;;;4.70;;
50429;SDS011;36359;41.556;-8.418;2022-08-01T15:04:26;14.23;;;5.28;;
50429;SDS011;36359;41.556;-8.418;2022-08-01T15:06:51;6.65;;;4.43;;
50429;SDS011;36359;41.556;-8.418;2022-08-01T15:09:17;7.18;;;4.70;;
50429;SDS011;36359;41.556;-8.418;2022-08-01T15:11:43;6.78;;;4.35;;
50429;SDS011;36359;41.556;-8.418;2022-08-01T15:14:09;7.50;;;4.70;;
50429;SDS011;36359;41.556;-8.418;2022-08-01T15:16:53;7.38;;;4.90;;
50429;SDS011;36359;41.556;-8.418;2022-08-01T15:19:19;10.30;;;4.93;;
50429;SDS011;36359;41.556;-8.418;2022-08-01T15:21:44;7.60;;;5.20;;
50429;SDS011;36359;41.556;-8.418;2022-08-01T15:24:10;6.63;;;4.60;;
50429;SDS011;36359;41.556;-8.418;2022-08-01T15:26:36;7.65;;;4.65;;
50429;SDS011;36359;41.556;-8.418;2022-08-01T15:29:02;8.15;;;4.30;;
50429;SDS011;36359;41.556;-8.418;2022-08-01T15:31:28;15.98;;;4.80;;
50429;SDS011;36359;41.556;-8.418;2022-08-01T15:33:53;9.10;;;5.10;;
50429;SDS011;36359;41.556;-8.418;2022-08-01T15:36:19;7.75;;;4.45;;